createdAt,value
2018-11-03T00:00:49.900Z,7.73
2018-11-03T00:03:17.046Z,11.43
2018-11-03T00:05:44.170Z,5.27
2018-11-03T00:08:11.334Z,4.73
2018-11-03T00:10:38.476Z,5.53
2018-11-03T00:13:05.756Z,12.27
2018-11-03T00:15:32.883Z,6.30
2018-11-03T00:18:00.057Z,6.37
2018-11-03T00:20:27.185Z,6.07
2018-11-03T00:22:54.331Z,8.77
2018-11-03T00:25:21.460Z,5.87
2018-11-03T00:27:48.590Z,10.03
2018-11-03T00:30:15.703Z,8.87
2018-11-03T00:32:42.842Z,7.57
2018-11-03T00:35:10.222Z,6.17
2018-11-03T00:37:37.491Z,8.50
2018-11-03T00:40:07.587Z,6.00
2018-11-03T00:42:34.753Z,8.33
2018-11-03T00:45:01.861Z,7.33
2018-11-03T00:47:28.974Z,12.30
2018-11-03T00:49:56.094Z,8.67
2018-11-03T00:52:23.236Z,7.60
2018-11-03T00:54:50.370Z,15.80
2018-11-03T00:57:17.551Z,5.73
2018-11-03T00:59:44.715Z,12.00
2018-11-03T01:02:11.859Z,11.00
2018-11-03T01:04:39.050Z,7.70
2018-11-03T01:07:06.342Z,9.87
2018-11-03T01:09:33.479Z,7.60
2018-11-03T01:12:00.627Z,10.73
2018-11-03T01:14:27.773Z,10.00
2018-11-03T01:16:54.932Z,7.77
2018-11-03T01:19:22.068Z,15.00
2018-11-03T01:21:49.228Z,10.47
2018-11-03T01:24:16.376Z,10.50
2018-11-03T01:26:43.664Z,11.20
2018-11-03T01:29:11.028Z,9.03
2018-11-03T01:31:38.282Z,7.50
2018-11-03T01:34:05.502Z,8.20
2018-11-03T01:36:32.631Z,8.83
2018-11-03T01:38:59.776Z,7.27
2018-11-03T01:41:26.916Z,9.70
2018-11-03T01:43:54.046Z,10.53
2018-11-03T01:46:21.202Z,11.33
2018-11-03T01:48:48.364Z,10.20
2018-11-03T01:51:15.496Z,10.53
2018-11-03T01:53:42.702Z,11.03
2018-11-03T01:56:09.787Z,11.17
2018-11-03T01:58:36.923Z,16.30
2018-11-03T02:01:04.218Z,12.07
2018-11-03T02:03:31.417Z,13.13
2018-11-03T02:05:58.506Z,10.30
2018-11-03T02:08:25.720Z,8.50
2018-11-03T02:10:52.848Z,8.10
2018-11-03T02:13:19.991Z,14.33
2018-11-03T02:15:47.143Z,11.70
2018-11-03T02:18:14.281Z,7.97
2018-11-03T02:20:41.484Z,8.77
2018-11-03T02:23:08.621Z,9.90
2018-11-03T02:25:35.742Z,10.77
2018-11-03T02:28:02.885Z,10.30
2018-11-03T02:30:30.027Z,10.00
2018-11-03T02:32:57.183Z,11.30
2018-11-03T02:35:24.327Z,16.13
2018-11-03T02:37:51.460Z,9.07
2018-11-03T02:40:18.594Z,12.43
2018-11-03T02:42:45.737Z,9.97
2018-11-03T02:45:12.856Z,15.60
2018-11-03T02:47:40.554Z,8.60
2018-11-03T02:50:09.846Z,14.10
2018-11-03T02:52:36.966Z,18.93
2018-11-03T02:55:04.515Z,15.93
2018-11-03T02:57:31.634Z,10.43
2018-11-03T02:59:58.804Z,13.90
2018-11-03T03:02:25.947Z,16.77
2018-11-03T03:04:53.077Z,15.07
2018-11-03T03:07:20.237Z,14.43
2018-11-03T03:09:47.366Z,15.67
2018-11-03T03:12:14.762Z,13.63
2018-11-03T03:14:41.975Z,14.37
2018-11-03T03:17:09.143Z,14.93
2018-11-03T03:19:36.275Z,11.83
2018-11-03T03:22:03.422Z,11.10
2018-11-03T03:24:30.550Z,12.23
2018-11-03T03:26:57.685Z,19.57
2018-11-03T03:29:24.832Z,13.10
2018-11-03T03:31:51.927Z,12.47
2018-11-03T03:34:19.062Z,13.63
2018-11-03T03:36:46.190Z,12.27
2018-11-03T03:39:13.316Z,12.57
2018-11-03T03:41:40.478Z,15.60
2018-11-03T03:44:07.624Z,14.77
2018-11-03T03:46:34.931Z,13.67
2018-11-03T03:49:02.104Z,16.73
2018-11-03T03:51:29.327Z,14.47
2018-11-03T03:53:56.451Z,13.30
2018-11-03T03:56:23.591Z,12.67
2018-11-03T03:58:50.695Z,16.10
2018-11-03T04:01:17.904Z,12.93
2018-11-03T04:03:45.050Z,12.63
2018-11-03T04:06:12.154Z,14.83
2018-11-03T04:08:39.394Z,14.40
2018-11-03T04:11:06.595Z,13.80
2018-11-03T04:13:33.843Z,12.83
2018-11-03T04:16:01.006Z,13.80
2018-11-03T04:18:28.126Z,12.93
2018-11-03T04:20:55.241Z,13.90
2018-11-03T04:23:22.357Z,11.07
2018-11-03T04:25:49.643Z,12.83
2018-11-03T04:28:16.768Z,10.33
2018-11-03T04:30:43.942Z,10.87
2018-11-03T04:33:11.058Z,13.87
2018-11-03T04:35:38.205Z,12.67
2018-11-03T04:38:05.416Z,12.90
2018-11-03T04:40:32.581Z,16.90
2018-11-03T04:42:59.705Z,14.83
2018-11-03T04:45:26.866Z,12.80
2018-11-03T04:47:53.978Z,14.47
2018-11-03T04:50:21.118Z,17.57
2018-11-03T04:52:48.267Z,15.33
2018-11-03T04:55:15.522Z,13.13
2018-11-03T04:57:42.602Z,9.63
2018-11-03T05:00:10.258Z,9.83
2018-11-03T05:02:37.442Z,10.70
2018-11-03T05:05:04.876Z,15.63
2018-11-03T05:07:32.003Z,17.87
2018-11-03T05:09:59.201Z,10.03
2018-11-03T05:12:26.331Z,12.20
2018-11-03T05:14:54.098Z,14.67
2018-11-03T05:17:21.244Z,12.47
2018-11-03T05:19:48.508Z,11.13
2018-11-03T05:22:15.646Z,17.90
2018-11-03T05:24:42.775Z,10.40
2018-11-03T05:27:09.916Z,12.33
2018-11-03T05:29:37.074Z,13.67
2018-11-03T05:32:04.582Z,15.47
2018-11-03T05:34:31.774Z,13.20
2018-11-03T05:36:58.910Z,13.67
2018-11-03T05:39:26.022Z,11.97
2018-11-03T05:41:53.129Z,16.70
2018-11-03T05:44:20.249Z,13.33
2018-11-03T05:46:47.388Z,16.73
2018-11-03T05:49:14.877Z,18.13
2018-11-03T05:51:41.991Z,13.17
2018-11-03T05:54:09.133Z,16.27
2018-11-03T05:56:36.280Z,15.57
2018-11-03T05:59:03.551Z,13.60
2018-11-03T06:01:30.582Z,16.33
2018-11-03T06:03:57.734Z,16.13
2018-11-03T06:06:24.977Z,12.63
2018-11-03T06:08:52.182Z,14.33
2018-11-03T06:11:19.280Z,13.37
2018-11-03T06:13:46.406Z,13.17
2018-11-03T06:16:13.558Z,13.03
2018-11-03T06:18:40.853Z,13.00
2018-11-03T06:21:07.995Z,13.13
2018-11-03T06:23:35.172Z,11.37
2018-11-03T06:26:02.243Z,15.60
2018-11-03T06:28:29.383Z,12.90
2018-11-03T06:30:56.545Z,11.20
2018-11-03T06:33:23.694Z,12.93
2018-11-03T06:35:50.822Z,12.97
2018-11-03T06:38:17.966Z,11.20
2018-11-03T06:40:45.130Z,14.33
2018-11-03T06:43:12.294Z,14.43
2018-11-03T06:45:39.442Z,12.23
2018-11-03T06:48:06.680Z,18.20
2018-11-03T06:50:33.814Z,20.97
2018-11-03T06:53:01.066Z,19.23
2018-11-03T06:55:28.772Z,15.40
2018-11-03T06:57:55.894Z,13.27
2018-11-03T07:00:23.443Z,14.73
2018-11-03T07:02:50.600Z,11.03
2018-11-03T07:05:17.849Z,27.13
2018-11-03T07:07:44.878Z,13.57
2018-11-03T07:10:12.034Z,12.77
2018-11-03T07:12:39.675Z,10.80
2018-11-03T07:15:06.698Z,11.27
2018-11-03T07:17:34.315Z,17.63
2018-11-03T07:20:02.445Z,16.47
2018-11-03T07:22:29.602Z,28.40
2018-11-03T07:24:56.772Z,10.97
2018-11-03T07:27:23.910Z,12.40
2018-11-03T07:29:51.112Z,12.37
2018-11-03T07:32:18.183Z,11.50
2018-11-03T07:34:45.355Z,10.67
2018-11-03T07:37:12.502Z,11.27
2018-11-03T07:39:39.647Z,10.37
2018-11-03T07:42:06.912Z,10.03
2018-11-03T07:44:34.057Z,13.27
2018-11-03T07:47:01.203Z,10.00
2018-11-03T07:49:28.449Z,13.87
2018-11-03T07:51:55.494Z,13.50
2018-11-03T07:54:22.637Z,11.17
2018-11-03T07:56:49.852Z,14.83
2018-11-03T07:59:17.010Z,9.67
2018-11-03T08:01:44.182Z,12.10
2018-11-03T08:04:11.317Z,13.93
2018-11-03T08:06:38.507Z,10.70
2018-11-03T08:09:07.125Z,11.17
2018-11-03T08:11:34.247Z,11.43
2018-11-03T08:14:01.386Z,15.17
2018-11-03T08:16:28.562Z,12.63
2018-11-03T08:18:55.686Z,14.93
2018-11-03T08:21:22.829Z,12.27
2018-11-03T08:23:49.976Z,12.83
2018-11-03T08:26:17.057Z,13.90
2018-11-03T08:28:44.188Z,11.93
2018-11-03T08:31:11.322Z,12.67
2018-11-03T08:33:38.458Z,18.67
2018-11-03T08:36:05.623Z,13.37
2018-11-03T08:38:32.765Z,13.57
2018-11-03T08:40:59.895Z,10.47
2018-11-03T08:43:27.011Z,9.60
2018-11-03T08:45:59.887Z,19.33
2018-11-03T08:48:26.976Z,13.10
2018-11-03T08:50:54.099Z,12.13
2018-11-03T08:53:21.240Z,17.23
2018-11-03T08:55:48.398Z,25.17
2018-11-03T08:58:15.553Z,10.23
2018-11-03T09:00:42.693Z,8.27
2018-11-03T09:03:09.833Z,17.67
2018-11-03T09:05:36.960Z,10.17
2018-11-03T09:08:04.451Z,7.10
2018-11-03T09:10:31.579Z,8.30
2018-11-03T09:12:58.727Z,9.00
2018-11-03T09:15:25.883Z,6.20
2018-11-03T09:17:53.007Z,7.30
2018-11-03T09:20:20.168Z,7.47
2018-11-03T09:22:47.383Z,5.73
2018-11-03T09:25:16.263Z,10.97
2018-11-03T09:27:43.843Z,6.30
2018-11-03T09:30:13.438Z,5.87
2018-11-03T09:32:40.803Z,9.77
2018-11-03T09:35:08.966Z,4.83
2018-11-03T09:37:36.162Z,6.43
2018-11-03T09:40:03.779Z,8.47
2018-11-03T09:42:30.885Z,5.17
2018-11-03T09:44:58.101Z,6.33
2018-11-03T09:47:25.207Z,6.70
2018-11-03T09:49:52.333Z,4.87
2018-11-03T09:52:19.506Z,6.87
2018-11-03T09:54:46.667Z,5.57
2018-11-03T09:57:13.819Z,6.03
2018-11-03T09:59:40.947Z,6.53
2018-11-03T10:02:08.086Z,8.93
2018-11-03T10:04:35.241Z,7.00
2018-11-03T10:07:02.390Z,6.60
2018-11-03T10:09:29.691Z,5.77
2018-11-03T10:11:56.879Z,9.37
2018-11-03T10:14:24.008Z,7.63
2018-11-03T10:16:51.166Z,8.20
2018-11-03T10:19:18.364Z,5.40
2018-11-03T10:21:45.535Z,7.67
2018-11-03T10:24:12.701Z,9.73
2018-11-03T10:26:39.930Z,4.53
2018-11-03T10:29:07.066Z,7.97
2018-11-03T10:31:34.222Z,6.07
2018-11-03T10:34:01.374Z,6.90
2018-11-03T10:36:28.533Z,6.67
2018-11-03T10:38:55.684Z,5.83
2018-11-03T10:41:22.833Z,10.40
2018-11-03T10:43:49.982Z,4.07
2018-11-03T10:46:17.180Z,4.20
2018-11-03T10:48:44.240Z,7.50
2018-11-03T10:51:11.400Z,11.20
2018-11-03T10:53:38.626Z,5.40
2018-11-03T10:56:05.770Z,8.30
2018-11-03T10:58:32.943Z,6.67
2018-11-03T11:01:05.948Z,6.90
2018-11-03T11:03:38.933Z,5.33
2018-11-03T11:06:11.952Z,6.67
2018-11-03T11:08:44.736Z,6.17
2018-11-03T11:11:17.607Z,7.70
2018-11-03T11:13:45.437Z,6.73
2018-11-03T11:16:12.600Z,17.07
2018-11-03T11:18:40.011Z,6.40
2018-11-03T11:21:07.171Z,10.10
2018-11-03T11:23:34.388Z,8.67
2018-11-03T11:26:01.486Z,4.40
2018-11-03T11:28:28.733Z,7.67
2018-11-03T11:30:55.881Z,11.67
2018-11-03T11:33:23.049Z,8.30
2018-11-03T11:35:51.528Z,10.10
2018-11-03T11:38:18.694Z,6.43
2018-11-03T11:40:45.879Z,8.97
2018-11-03T11:43:13.872Z,10.43
2018-11-03T11:45:40.850Z,4.33
2018-11-03T11:48:08.184Z,7.27
2018-11-03T11:50:35.318Z,4.17
2018-11-03T11:53:02.470Z,4.17
2018-11-03T11:55:29.621Z,5.00
2018-11-03T11:57:56.785Z,6.67
2018-11-03T12:00:23.957Z,12.20
2018-11-03T12:02:51.850Z,7.27
2018-11-03T12:05:19.099Z,6.93
2018-11-03T12:07:46.226Z,5.97
2018-11-03T12:10:13.538Z,5.23
2018-11-03T12:12:40.722Z,3.87
2018-11-03T12:15:08.842Z,6.30
2018-11-03T12:17:36.139Z,4.87
2018-11-03T12:20:03.514Z,5.60
2018-11-03T12:22:30.667Z,6.73
2018-11-03T12:24:57.830Z,5.07
2018-11-03T12:27:25.394Z,3.00
2018-11-03T12:29:52.516Z,4.13
2018-11-03T12:32:19.874Z,4.53
2018-11-03T12:34:47.000Z,4.00
2018-11-03T12:37:14.156Z,4.70
2018-11-03T12:39:41.269Z,6.57
2018-11-03T12:42:08.463Z,4.83
2018-11-03T12:44:35.653Z,4.90
2018-11-03T12:47:02.808Z,4.97
2018-11-03T12:49:29.976Z,4.27
2018-11-03T12:51:57.107Z,5.37
2018-11-03T12:54:24.231Z,3.80
2018-11-03T12:56:51.388Z,3.73
2018-11-03T12:59:18.568Z,3.83
2018-11-03T13:01:45.744Z,3.13
2018-11-03T13:04:12.923Z,3.83
2018-11-03T13:06:40.032Z,6.40
2018-11-03T13:09:07.859Z,7.20
2018-11-03T13:11:34.998Z,5.20
2018-11-03T13:14:02.150Z,4.67
2018-11-03T13:16:29.421Z,6.37
2018-11-03T13:18:56.523Z,5.90
2018-11-03T13:21:23.646Z,9.40
2018-11-03T13:23:50.866Z,4.53
2018-11-03T13:26:18.000Z,3.80
2018-11-03T13:28:45.136Z,4.27
2018-11-03T13:31:12.275Z,4.47
2018-11-03T13:33:39.426Z,5.57
2018-11-03T13:36:06.751Z,11.43
2018-11-03T13:38:33.940Z,5.53
2018-11-03T13:41:01.204Z,4.43
2018-11-03T13:43:28.273Z,4.40
2018-11-03T13:45:55.398Z,4.53
2018-11-03T13:48:22.658Z,7.47
2018-11-03T13:50:49.802Z,5.70
2018-11-03T13:53:16.963Z,6.00
2018-11-03T13:55:44.112Z,5.87
2018-11-03T13:58:11.239Z,3.87
2018-11-03T14:00:38.361Z,4.60
2018-11-03T14:03:05.505Z,4.20
2018-11-03T14:05:32.668Z,3.87
2018-11-03T14:07:59.789Z,5.97
2018-11-03T14:10:26.913Z,8.60
2018-11-03T14:12:54.065Z,3.90
2018-11-03T14:15:21.224Z,7.70
2018-11-03T14:17:48.317Z,5.57
2018-11-03T14:20:16.131Z,8.20
2018-11-03T14:22:43.924Z,11.17
2018-11-03T14:25:12.290Z,8.40
2018-11-03T14:27:40.068Z,8.97
2018-11-03T14:30:08.124Z,6.23
2018-11-03T14:32:35.262Z,7.23
2018-11-03T14:35:02.404Z,9.57
2018-11-03T14:37:29.539Z,4.77
2018-11-03T14:39:56.683Z,4.77
2018-11-03T14:42:23.817Z,5.43
2018-11-03T14:44:51.125Z,6.47
2018-11-03T14:47:18.224Z,5.10
2018-11-03T14:49:47.786Z,7.07
2018-11-03T14:52:16.870Z,4.63
2018-11-03T14:54:48.759Z,3.97
2018-11-03T14:57:16.085Z,7.97
2018-11-03T14:59:43.222Z,7.37
2018-11-03T15:02:10.383Z,3.40
2018-11-03T15:04:37.515Z,4.30
2018-11-03T15:07:04.988Z,5.23
2018-11-03T15:09:32.113Z,8.10
2018-11-03T15:11:59.246Z,4.77
2018-11-03T15:14:26.498Z,3.60
2018-11-03T15:16:53.510Z,4.80
2018-11-03T15:19:20.653Z,6.23
2018-11-03T15:21:47.802Z,6.17
2018-11-03T15:24:14.983Z,3.83
2018-11-03T15:26:42.188Z,3.17
2018-11-03T15:29:09.340Z,4.27
2018-11-03T15:31:36.570Z,3.00
2018-11-03T15:34:03.807Z,8.83
2018-11-03T15:36:30.966Z,3.20
2018-11-03T15:38:59.096Z,3.33
2018-11-03T15:41:27.984Z,5.77
2018-11-03T15:43:55.081Z,4.03
2018-11-03T15:46:22.217Z,4.50
2018-11-03T15:48:49.363Z,5.63
2018-11-03T15:51:16.544Z,4.23
2018-11-03T15:53:43.708Z,6.77
2018-11-03T15:56:10.958Z,6.83
2018-11-03T15:58:38.109Z,6.27
2018-11-03T16:01:05.256Z,8.97
2018-11-03T16:03:32.420Z,10.33
2018-11-03T16:05:59.577Z,5.23
2018-11-03T16:08:26.735Z,6.87
2018-11-03T16:10:53.874Z,5.80
2018-11-03T16:13:21.026Z,6.97
2018-11-03T16:15:48.152Z,11.70
2018-11-03T16:18:15.293Z,7.20
2018-11-03T16:20:42.454Z,9.57
2018-11-03T16:23:09.606Z,11.30
2018-11-03T16:25:37.436Z,4.43
2018-11-03T16:28:04.835Z,5.20
2018-11-03T16:30:31.975Z,6.57
2018-11-03T16:32:59.242Z,6.87
2018-11-03T16:35:26.419Z,4.97
2018-11-03T16:37:53.522Z,8.23
2018-11-03T16:40:20.672Z,6.03
2018-11-03T16:42:47.802Z,12.13
2018-11-03T16:45:15.827Z,7.97
2018-11-03T16:47:43.293Z,7.80
2018-11-03T16:50:11.578Z,5.17
2018-11-03T16:52:39.223Z,13.53
2018-11-03T16:55:06.987Z,6.57
2018-11-03T16:57:34.139Z,6.47
2018-11-03T17:00:01.275Z,8.70
2018-11-03T17:02:28.439Z,7.93
2018-11-03T17:04:55.579Z,16.23
2018-11-03T17:07:22.722Z,7.07
2018-11-03T17:09:49.875Z,7.23
2018-11-03T17:12:17.074Z,8.60
2018-11-03T17:14:44.142Z,8.87
2018-11-03T17:17:11.263Z,6.83
2018-11-03T17:19:38.398Z,6.97
2018-11-03T17:22:05.560Z,8.37
2018-11-03T17:24:32.690Z,5.87
2018-11-03T17:26:59.839Z,10.47
2018-11-03T17:29:27.012Z,10.67
2018-11-03T17:31:54.154Z,6.90
2018-11-03T17:34:21.306Z,8.67
2018-11-03T17:36:48.454Z,9.97
2018-11-03T17:39:15.591Z,16.43
2018-11-03T17:41:42.766Z,16.37
2018-11-03T17:44:09.997Z,19.77
2018-11-03T17:46:37.073Z,19.00
2018-11-03T17:49:04.245Z,22.50
2018-11-03T17:51:31.445Z,25.87
2018-11-03T17:53:58.586Z,19.43
2018-11-03T17:56:25.732Z,10.60
2018-11-03T17:58:52.902Z,7.00
2018-11-03T18:01:20.241Z,9.77
2018-11-03T18:03:47.163Z,9.30
2018-11-03T18:06:14.339Z,6.53
2018-11-03T18:08:41.462Z,9.47
2018-11-03T18:11:08.579Z,7.63
2018-11-03T18:13:35.986Z,5.13
2018-11-03T18:16:03.110Z,9.30
2018-11-03T18:18:30.240Z,5.67
2018-11-03T18:20:57.367Z,8.63
2018-11-03T18:23:24.510Z,10.97
2018-11-03T18:25:51.642Z,7.00
2018-11-03T18:28:18.773Z,6.03
2018-11-03T18:30:45.963Z,7.97
2018-11-03T18:33:13.233Z,8.17
2018-11-03T18:35:40.346Z,10.53
2018-11-03T18:38:07.467Z,11.70
2018-11-03T18:40:34.726Z,9.40
2018-11-03T18:43:01.854Z,14.17
2018-11-03T18:45:28.976Z,9.93
2018-11-03T18:47:56.121Z,11.47
2018-11-03T18:50:23.265Z,10.50
2018-11-03T18:52:50.419Z,9.37
2018-11-03T18:55:17.570Z,9.97
2018-11-03T18:57:44.696Z,6.13
2018-11-03T19:00:11.837Z,8.27
2018-11-03T19:02:39.832Z,8.37
2018-11-03T19:05:07.403Z,9.27
2018-11-03T19:07:34.558Z,13.50
2018-11-03T19:10:01.698Z,7.97
2018-11-03T19:12:28.853Z,8.63
2018-11-03T19:14:56.018Z,8.93
2018-11-03T19:17:23.144Z,8.67
2018-11-03T19:19:50.284Z,8.50
2018-11-03T19:22:17.418Z,11.43
2018-11-03T19:24:44.526Z,13.63
2018-11-03T19:27:11.655Z,10.07
2018-11-03T19:29:38.911Z,11.40
2018-11-03T19:32:06.310Z,14.17
2018-11-03T19:34:33.441Z,13.13
2018-11-03T19:37:00.594Z,8.03
2018-11-03T19:39:27.710Z,11.37
2018-11-03T19:41:54.851Z,10.00
2018-11-03T19:44:22.014Z,10.40
2018-11-03T19:46:49.143Z,8.07
2018-11-03T19:49:16.311Z,10.40
2018-11-03T19:51:43.591Z,10.53
2018-11-03T19:54:10.944Z,16.37
2018-11-03T19:56:38.113Z,11.60
2018-11-03T19:59:05.259Z,11.80
2018-11-03T20:01:32.398Z,13.37
2018-11-03T20:03:59.530Z,14.60
2018-11-03T20:06:26.679Z,10.43
2018-11-03T20:08:53.814Z,10.23
2018-11-03T20:11:20.941Z,10.00
2018-11-03T20:13:48.074Z,15.23
2018-11-03T20:16:15.195Z,14.10
2018-11-03T20:18:42.315Z,9.97
2018-11-03T20:21:09.443Z,10.37
2018-11-03T20:23:36.581Z,13.37
2018-11-03T20:26:03.828Z,10.30
2018-11-03T20:28:30.946Z,14.73
2018-11-03T20:30:58.075Z,14.63
2018-11-03T20:33:25.223Z,10.90
2018-11-03T20:35:52.348Z,9.00
2018-11-03T20:38:19.746Z,12.70
2018-11-03T20:40:46.874Z,17.50
2018-11-03T20:43:14.002Z,13.53
2018-11-03T20:45:41.150Z,11.80
2018-11-03T20:48:08.386Z,13.20
2018-11-03T20:50:35.556Z,10.47
2018-11-03T20:53:02.706Z,13.50
2018-11-03T20:55:29.896Z,12.33
2018-11-03T20:57:57.072Z,9.77
2018-11-03T21:00:24.225Z,15.17
2018-11-03T21:02:51.374Z,12.37
2018-11-03T21:05:18.730Z,9.97
2018-11-03T21:07:46.086Z,12.67
2018-11-03T21:10:13.294Z,12.67
2018-11-03T21:12:40.482Z,13.67
2018-11-03T21:15:07.651Z,14.37
2018-11-03T21:17:34.905Z,17.40
2018-11-03T21:20:02.213Z,12.07
2018-11-03T21:22:29.331Z,10.83
2018-11-03T21:24:56.453Z,10.90
2018-11-03T21:27:23.596Z,11.40
2018-11-03T21:29:50.747Z,10.67
2018-11-03T21:32:18.008Z,12.77
2018-11-03T21:34:45.078Z,12.60
2018-11-03T21:37:12.222Z,12.57
2018-11-03T21:39:39.366Z,15.67
2018-11-03T21:42:06.670Z,17.33
2018-11-03T21:44:33.946Z,14.57
2018-11-03T21:47:01.130Z,13.40
2018-11-03T21:49:28.227Z,13.27
2018-11-03T21:51:55.394Z,15.30
2018-11-03T21:54:22.544Z,14.63
2018-11-03T21:56:49.789Z,14.57
2018-11-03T21:59:16.918Z,12.13
2018-11-03T22:01:44.041Z,16.03
2018-11-03T22:04:11.217Z,14.17
2018-11-03T22:06:38.595Z,14.33
2018-11-03T22:09:07.916Z,10.30
2018-11-03T22:11:35.424Z,12.37
2018-11-03T22:14:02.626Z,15.53
2018-11-03T22:16:29.759Z,14.70
2018-11-03T22:18:56.882Z,12.43
2018-11-03T22:21:24.006Z,14.90
2018-11-03T22:23:51.136Z,14.20
2018-11-03T22:26:18.287Z,13.20
2018-11-03T22:28:45.419Z,13.70
2018-11-03T22:31:12.557Z,11.60
2018-11-03T22:33:39.658Z,14.80
2018-11-03T22:36:06.770Z,12.00
2018-11-03T22:38:33.903Z,13.57
2018-11-03T22:41:01.028Z,12.77
2018-11-03T22:43:28.168Z,12.70
2018-11-03T22:45:55.310Z,12.27
2018-11-03T22:48:22.447Z,11.97
2018-11-03T22:50:49.596Z,10.90
2018-11-03T22:53:16.738Z,10.40
2018-11-03T22:55:43.942Z,9.70
2018-11-03T22:58:11.060Z,15.23
2018-11-03T23:00:44.031Z,14.67
2018-11-03T23:03:11.210Z,14.50
2018-11-03T23:05:38.347Z,10.80
2018-11-03T23:08:05.560Z,12.17
2018-11-03T23:10:32.700Z,13.93
2018-11-03T23:12:59.918Z,14.20
2018-11-03T23:15:26.970Z,13.17
2018-11-03T23:17:54.145Z,14.43
2018-11-03T23:20:21.287Z,13.00
2018-11-03T23:22:48.414Z,16.40
2018-11-03T23:25:15.570Z,13.90
2018-11-03T23:27:42.703Z,10.97
2018-11-03T23:30:11.294Z,19.20
2018-11-03T23:32:38.422Z,14.30
2018-11-03T23:35:06.648Z,14.83
2018-11-03T23:37:33.767Z,12.43
2018-11-03T23:40:00.906Z,11.23
2018-11-03T23:42:28.071Z,12.20
2018-11-03T23:44:55.239Z,16.27
2018-11-03T23:47:22.329Z,10.83
2018-11-03T23:49:49.462Z,13.93
2018-11-03T23:52:21.218Z,12.43
2018-11-03T23:54:48.357Z,16.07
2018-11-03T23:57:15.510Z,12.67
2018-11-03T23:59:42.652Z,11.27
